createdAt,value
2019-01-26T00:00:41.871Z,17.03
2019-01-26T00:03:09.403Z,20.60
2019-01-26T00:05:36.882Z,23.47
2019-01-26T00:08:04.345Z,25.13
2019-01-26T00:10:33.058Z,25.88
2019-01-26T00:13:00.598Z,17.07
2019-01-26T00:15:28.045Z,23.43
2019-01-26T00:17:55.495Z,26.75
2019-01-26T00:20:22.968Z,26.07
2019-01-26T00:22:50.423Z,28.47
2019-01-26T00:25:17.915Z,25.53
2019-01-26T00:27:45.365Z,30.30
2019-01-26T00:30:13.597Z,22.60
2019-01-26T00:32:41.038Z,29.10
2019-01-26T00:35:08.496Z,30.50
2019-01-26T00:37:35.961Z,26.10
2019-01-26T00:40:03.399Z,24.50
2019-01-26T00:42:30.954Z,23.43
2019-01-26T00:44:58.434Z,21.42
2019-01-26T00:47:26.060Z,25.95
2019-01-26T00:49:53.595Z,24.47
2019-01-26T00:52:21.156Z,22.47
2019-01-26T00:54:48.711Z,37.80
2019-01-26T00:57:16.451Z,29.20
2019-01-26T00:59:44.014Z,24.33
2019-01-26T01:02:11.492Z,28.40
2019-01-26T01:04:38.957Z,27.48
2019-01-26T01:07:06.456Z,21.23
2019-01-26T01:09:33.925Z,22.83
2019-01-26T01:12:01.449Z,26.97
2019-01-26T01:14:29.138Z,25.00
2019-01-26T01:16:56.733Z,31.23
2019-01-26T01:19:24.218Z,22.73
2019-01-26T01:21:51.733Z,28.33
2019-01-26T01:24:19.296Z,30.63
2019-01-26T01:26:46.821Z,33.50
2019-01-26T01:29:14.293Z,26.97
2019-01-26T01:31:41.831Z,25.53
2019-01-26T01:34:09.388Z,23.70
2019-01-26T01:36:37.004Z,26.23
2019-01-26T01:39:04.466Z,20.50
2019-01-26T01:41:31.946Z,35.95
2019-01-26T01:43:59.425Z,30.40
2019-01-26T01:46:26.932Z,29.00
2019-01-26T01:48:54.432Z,31.60
2019-01-26T01:51:21.920Z,33.67
2019-01-26T01:53:49.378Z,36.03
2019-01-26T01:56:17.424Z,27.90
2019-01-26T01:58:44.896Z,43.50
2019-01-26T02:01:12.378Z,28.58
2019-01-26T02:03:39.891Z,35.60
2019-01-26T02:06:07.434Z,45.23
2019-01-26T02:08:34.890Z,29.95
2019-01-26T02:11:02.357Z,35.38
2019-01-26T02:13:29.829Z,28.17
2019-01-26T02:15:57.384Z,28.77
2019-01-26T02:18:24.865Z,24.97
2019-01-26T02:20:52.359Z,24.15
2019-01-26T02:23:19.839Z,25.77
2019-01-26T02:25:47.318Z,30.63
2019-01-26T02:28:15.753Z,39.10
2019-01-26T02:30:43.214Z,52.03
2019-01-26T02:33:10.680Z,32.00
2019-01-26T02:35:38.201Z,47.47
2019-01-26T02:38:05.649Z,51.30
2019-01-26T02:40:33.117Z,53.17
2019-01-26T02:43:00.609Z,49.23
2019-01-26T02:45:28.128Z,32.70
2019-01-26T02:47:55.617Z,36.58
2019-01-26T02:50:23.134Z,38.03
2019-01-26T02:52:50.641Z,45.27
2019-01-26T02:55:18.175Z,43.10
2019-01-26T02:57:45.614Z,41.27
2019-01-26T03:00:15.710Z,61.93
2019-01-26T03:02:43.179Z,59.90
2019-01-26T03:05:10.650Z,52.97
2019-01-26T03:07:38.115Z,57.80
2019-01-26T03:10:05.559Z,58.47
2019-01-26T03:12:33.029Z,64.07
2019-01-26T03:15:00.502Z,56.90
2019-01-26T03:17:27.968Z,60.73
2019-01-26T03:19:55.457Z,67.23
2019-01-26T03:22:23.013Z,48.83
2019-01-26T03:24:50.476Z,68.60
2019-01-26T03:27:18.372Z,52.20
2019-01-26T03:29:45.829Z,66.67
2019-01-26T03:32:13.394Z,57.10
2019-01-26T03:34:40.905Z,47.33
2019-01-26T03:37:09.192Z,59.17
2019-01-26T03:39:36.751Z,51.10
2019-01-26T03:42:04.245Z,54.85
2019-01-26T03:44:31.731Z,56.67
2019-01-26T03:46:59.193Z,64.57
2019-01-26T03:49:26.658Z,57.33
2019-01-26T03:51:54.130Z,54.97
2019-01-26T03:54:21.660Z,38.97
2019-01-26T03:56:49.139Z,61.30
2019-01-26T03:59:16.610Z,59.77
2019-01-26T04:01:44.055Z,49.67
2019-01-26T04:04:11.530Z,45.70
2019-01-26T04:06:39.014Z,54.15
2019-01-26T04:09:06.499Z,70.27
2019-01-26T04:11:33.964Z,51.20
2019-01-26T04:14:01.426Z,45.80
2019-01-26T04:16:28.896Z,66.20
2019-01-26T04:18:56.369Z,53.43
2019-01-26T04:21:23.847Z,47.87
2019-01-26T04:23:51.358Z,61.77
2019-01-26T04:26:19.279Z,58.47
2019-01-26T04:28:46.767Z,48.37
2019-01-26T04:31:14.259Z,52.72
2019-01-26T04:33:41.789Z,54.13
2019-01-26T04:36:09.281Z,75.97
2019-01-26T04:38:36.720Z,58.63
2019-01-26T04:41:04.189Z,56.77
2019-01-26T04:43:31.690Z,79.77
2019-01-26T04:45:59.173Z,73.32
2019-01-26T04:48:26.638Z,70.00
2019-01-26T04:50:54.103Z,69.93
2019-01-26T04:53:21.615Z,70.20
2019-01-26T04:55:49.866Z,49.22
2019-01-26T04:58:17.332Z,55.70
2019-01-26T05:00:44.810Z,39.67
2019-01-26T05:03:12.299Z,51.27
2019-01-26T05:05:39.740Z,45.73
2019-01-26T05:08:07.243Z,54.60
2019-01-26T05:10:34.682Z,44.70
2019-01-26T05:13:02.149Z,62.10
2019-01-26T05:15:29.667Z,58.57
2019-01-26T05:17:57.167Z,61.45
2019-01-26T05:20:24.624Z,63.38
2019-01-26T05:22:52.129Z,66.43
2019-01-26T05:25:20.441Z,62.23
2019-01-26T05:27:47.912Z,66.53
2019-01-26T05:30:16.058Z,64.10
2019-01-26T05:32:43.534Z,58.17
2019-01-26T05:35:11.025Z,63.07
2019-01-26T05:37:38.513Z,68.43
2019-01-26T05:40:11.549Z,62.50
2019-01-26T05:42:39.015Z,55.10
2019-01-26T05:45:07.091Z,47.73
2019-01-26T05:47:34.600Z,51.30
2019-01-26T05:50:02.055Z,70.93
2019-01-26T05:52:29.543Z,63.53
2019-01-26T05:54:57.001Z,61.03
2019-01-26T05:57:24.448Z,60.47
2019-01-26T05:59:51.907Z,47.57
2019-01-26T06:02:19.346Z,52.57
2019-01-26T06:04:46.876Z,65.70
2019-01-26T06:07:14.319Z,61.80
2019-01-26T06:09:41.818Z,67.23
2019-01-26T06:12:09.271Z,72.67
2019-01-26T06:14:36.755Z,45.83
2019-01-26T06:17:04.238Z,63.10
2019-01-26T06:19:31.716Z,50.15
2019-01-26T06:21:59.208Z,57.33
2019-01-26T06:24:27.621Z,61.20
2019-01-26T06:26:55.173Z,55.27
2019-01-26T06:29:22.628Z,57.13
2019-01-26T06:31:50.124Z,68.80
2019-01-26T06:34:17.600Z,54.55
2019-01-26T06:36:45.066Z,76.90
2019-01-26T06:39:12.557Z,59.33
2019-01-26T06:41:40.016Z,51.77
2019-01-26T06:44:07.448Z,56.07
2019-01-26T06:46:34.997Z,41.65
2019-01-26T06:49:02.425Z,48.37
2019-01-26T06:51:29.901Z,63.77
2019-01-26T06:53:57.389Z,59.63
2019-01-26T06:56:24.831Z,60.03
2019-01-26T06:58:53.321Z,41.50
2019-01-26T07:01:20.865Z,54.27
2019-01-26T07:03:48.329Z,54.80
2019-01-26T07:06:16.049Z,71.30
2019-01-26T07:08:43.539Z,60.43
2019-01-26T07:11:10.987Z,52.73
2019-01-26T07:13:38.484Z,64.50
2019-01-26T07:16:05.981Z,56.37
2019-01-26T07:18:33.452Z,63.67
2019-01-26T07:21:01.039Z,65.67
2019-01-26T07:23:28.494Z,65.97
2019-01-26T07:25:55.954Z,54.67
2019-01-26T07:28:23.443Z,60.47
2019-01-26T07:30:50.969Z,58.83
2019-01-26T07:33:18.413Z,51.77
2019-01-26T07:35:45.859Z,51.40
2019-01-26T07:38:13.954Z,53.97
2019-01-26T07:40:40.886Z,60.30
2019-01-26T07:43:08.386Z,54.37
2019-01-26T07:45:35.829Z,56.70
2019-01-26T07:48:03.377Z,53.60
2019-01-26T07:50:30.812Z,42.28
2019-01-26T07:52:58.557Z,47.13
2019-01-26T07:55:26.013Z,42.50
2019-01-26T07:57:53.486Z,47.13
2019-01-26T08:00:21.932Z,46.40
2019-01-26T08:02:49.395Z,40.13
2019-01-26T08:05:16.839Z,44.70
2019-01-26T08:07:44.329Z,43.67
2019-01-26T08:10:11.903Z,50.07
2019-01-26T08:12:39.376Z,40.90
2019-01-26T08:15:06.843Z,40.40
2019-01-26T08:17:34.416Z,48.25
2019-01-26T08:20:01.887Z,45.35
2019-01-26T08:22:29.431Z,43.47
2019-01-26T08:24:56.959Z,40.03
2019-01-26T08:27:24.432Z,40.27
2019-01-26T08:29:51.889Z,38.33
2019-01-26T08:32:19.355Z,33.30
2019-01-26T08:34:46.787Z,39.40
2019-01-26T08:37:14.267Z,38.72
2019-01-26T08:39:41.721Z,34.67
2019-01-26T08:42:10.011Z,36.27
2019-01-26T08:44:37.516Z,38.57
2019-01-26T08:47:05.020Z,43.50
2019-01-26T08:49:32.584Z,44.70
2019-01-26T08:52:00.131Z,46.80
2019-01-26T08:54:27.613Z,36.58
2019-01-26T08:56:55.101Z,33.50
2019-01-26T08:59:22.606Z,40.63
2019-01-26T09:01:50.097Z,33.23
2019-01-26T09:04:17.582Z,40.97
2019-01-26T09:06:45.073Z,44.38
2019-01-26T09:09:12.608Z,45.12
2019-01-26T09:11:40.090Z,48.73
2019-01-26T09:14:08.298Z,45.33
2019-01-26T09:16:35.761Z,33.13
2019-01-26T09:19:03.232Z,42.03
2019-01-26T09:21:30.755Z,47.13
2019-01-26T09:23:59.196Z,51.22
2019-01-26T09:26:26.760Z,47.80
2019-01-26T09:28:54.280Z,49.20
2019-01-26T09:31:21.767Z,45.70
2019-01-26T09:33:49.230Z,46.13
2019-01-26T09:36:16.717Z,37.35
2019-01-26T09:38:44.190Z,42.25
2019-01-26T09:41:11.633Z,36.47
2019-01-26T09:43:39.108Z,44.37
2019-01-26T09:46:06.666Z,29.35
2019-01-26T09:48:34.136Z,30.63
2019-01-26T09:51:01.584Z,23.83
2019-01-26T09:53:29.055Z,34.13
2019-01-26T09:55:56.559Z,49.23
2019-01-26T09:58:24.314Z,41.67
2019-01-26T10:00:51.861Z,37.80
2019-01-26T10:03:19.341Z,34.30
2019-01-26T10:05:46.843Z,38.63
2019-01-26T10:08:15.453Z,27.73
2019-01-26T10:10:43.117Z,35.63
2019-01-26T10:13:10.740Z,32.63
2019-01-26T10:15:38.201Z,31.03
2019-01-26T10:18:05.720Z,34.03
2019-01-26T10:20:34.042Z,27.63
2019-01-26T10:23:02.600Z,29.00
2019-01-26T10:25:30.347Z,29.67
2019-01-26T10:27:57.797Z,27.70
2019-01-26T10:30:25.260Z,24.10
2019-01-26T10:32:52.734Z,33.20
2019-01-26T10:35:20.217Z,34.23
2019-01-26T10:37:47.707Z,31.03
2019-01-26T10:40:21.578Z,28.87
2019-01-26T10:42:49.053Z,30.27
2019-01-26T10:45:17.411Z,27.97
2019-01-26T10:47:45.005Z,22.08
2019-01-26T10:50:12.467Z,24.73
2019-01-26T10:52:39.953Z,30.67
2019-01-26T10:55:07.409Z,27.60
2019-01-26T10:57:34.897Z,28.27
2019-01-26T11:00:02.401Z,29.67
2019-01-26T11:02:29.825Z,26.33
2019-01-26T11:04:57.346Z,30.20
2019-01-26T11:07:25.603Z,35.63
2019-01-26T11:09:53.155Z,25.30
2019-01-26T11:12:20.594Z,22.77
2019-01-26T11:14:48.131Z,31.48
2019-01-26T11:17:15.598Z,30.87
2019-01-26T11:19:43.121Z,27.75
2019-01-26T11:22:10.594Z,23.27
2019-01-26T11:24:38.080Z,24.75
2019-01-26T11:27:05.624Z,26.63
2019-01-26T11:29:33.363Z,24.97
2019-01-26T11:32:00.831Z,27.43
2019-01-26T11:34:28.292Z,23.10
2019-01-26T11:36:55.788Z,27.10
2019-01-26T11:39:23.223Z,23.60
2019-01-26T11:41:50.715Z,29.10
2019-01-26T11:44:18.163Z,22.50
2019-01-26T11:46:45.654Z,16.75
2019-01-26T11:49:15.146Z,18.23
2019-01-26T11:51:40.598Z,22.07
2019-01-26T11:54:08.126Z,22.50
2019-01-26T11:56:38.439Z,22.77
2019-01-26T11:59:05.902Z,24.87
2019-01-26T12:01:35.883Z,20.83
2019-01-26T12:04:03.864Z,19.83
2019-01-26T12:06:31.301Z,22.10
2019-01-26T12:08:58.788Z,20.40
2019-01-26T12:11:27.370Z,18.43
2019-01-26T12:13:53.766Z,23.27
2019-01-26T12:16:26.909Z,19.73
2019-01-26T12:18:48.768Z,22.43
2019-01-26T12:21:16.242Z,20.85
2019-01-26T12:23:43.694Z,17.40
2019-01-26T12:26:11.126Z,17.02
2019-01-26T12:28:38.581Z,18.67
2019-01-26T12:31:06.039Z,14.13
2019-01-26T12:33:33.984Z,15.75
2019-01-26T12:36:01.437Z,15.30
2019-01-26T12:38:29.976Z,15.50
2019-01-26T12:40:57.466Z,13.40
2019-01-26T12:43:24.965Z,14.90
2019-01-26T12:45:52.425Z,15.00
2019-01-26T12:48:19.893Z,13.43
2019-01-26T12:50:47.366Z,12.07
2019-01-26T12:53:14.863Z,13.50
2019-01-26T12:55:42.298Z,13.05
2019-01-26T12:58:09.742Z,11.83
2019-01-26T13:00:37.204Z,12.13
2019-01-26T13:03:04.631Z,11.57
2019-01-26T13:05:32.218Z,10.93
2019-01-26T13:07:59.682Z,13.27
2019-01-26T13:10:38.704Z,12.77
2019-01-26T13:13:06.181Z,13.00
2019-01-26T13:15:33.720Z,12.97
2019-01-26T13:18:01.182Z,12.57
2019-01-26T13:20:28.661Z,11.07
2019-01-26T13:22:56.112Z,11.27
2019-01-26T13:25:23.562Z,11.07
2019-01-26T13:27:51.004Z,10.40
2019-01-26T13:30:19.069Z,10.98
2019-01-26T13:32:46.690Z,12.20
2019-01-26T13:35:14.057Z,10.67
2019-01-26T13:37:41.492Z,9.23
2019-01-26T13:40:24.588Z,10.37
2019-01-26T13:42:52.093Z,10.77
2019-01-26T13:45:21.439Z,10.47
2019-01-26T13:47:48.911Z,10.37
2019-01-26T13:50:16.393Z,10.07
2019-01-26T13:52:43.839Z,9.33
2019-01-26T13:55:15.730Z,11.20
2019-01-26T13:57:43.180Z,9.67
2019-01-26T14:00:11.453Z,8.93
2019-01-26T14:02:38.907Z,9.03
2019-01-26T14:05:06.377Z,9.23
2019-01-26T14:07:35.390Z,10.02
2019-01-26T14:10:02.895Z,9.20
2019-01-26T14:12:31.031Z,8.83
2019-01-26T14:14:58.495Z,10.60
2019-01-26T14:17:25.931Z,9.55
2019-01-26T14:19:53.419Z,9.48
2019-01-26T14:22:20.841Z,9.35
2019-01-26T14:24:48.345Z,9.43
2019-01-26T14:27:15.799Z,7.50
2019-01-26T14:29:43.239Z,8.02
2019-01-26T14:32:10.734Z,8.17
2019-01-26T14:34:38.256Z,8.13
2019-01-26T14:37:06.458Z,8.35
2019-01-26T14:39:33.924Z,8.17
2019-01-26T14:42:01.410Z,9.45
2019-01-26T14:44:28.873Z,8.30
2019-01-26T14:46:56.312Z,8.17
2019-01-26T14:49:23.757Z,13.37
2019-01-26T14:51:52.076Z,9.50
2019-01-26T14:54:19.555Z,9.73
2019-01-26T14:56:46.980Z,9.17
2019-01-26T14:59:14.433Z,8.70
2019-01-26T15:01:41.905Z,9.15
2019-01-26T15:04:09.414Z,9.37
2019-01-26T15:06:37.157Z,9.18
2019-01-26T15:09:04.591Z,8.80
2019-01-26T15:11:32.031Z,9.07
2019-01-26T15:13:59.556Z,9.90
2019-01-26T15:16:27.048Z,8.85
2019-01-26T15:18:54.472Z,9.03
2019-01-26T15:21:21.935Z,8.10
2019-01-26T15:23:49.522Z,9.23
2019-01-26T15:26:17.034Z,6.87
2019-01-26T15:28:44.499Z,8.23
2019-01-26T15:31:11.957Z,10.00
2019-01-26T15:33:39.422Z,8.82
2019-01-26T15:36:09.101Z,8.80
2019-01-26T15:38:35.010Z,10.87
2019-01-26T15:41:02.480Z,9.47
2019-01-26T15:43:29.915Z,12.20
2019-01-26T15:45:57.414Z,11.50
2019-01-26T15:48:24.846Z,10.35
2019-01-26T15:50:52.340Z,12.30
2019-01-26T15:53:19.796Z,12.13
2019-01-26T15:55:47.266Z,10.70
2019-01-26T15:58:14.771Z,10.20
2019-01-26T16:00:42.235Z,11.05
2019-01-26T16:03:09.697Z,8.47
2019-01-26T16:05:38.143Z,9.57
2019-01-26T16:08:05.625Z,8.07
2019-01-26T16:10:33.208Z,9.85
2019-01-26T16:13:00.648Z,9.60
2019-01-26T16:15:28.135Z,9.20
2019-01-26T16:17:55.604Z,10.03
2019-01-26T16:20:23.078Z,10.37
2019-01-26T16:22:50.543Z,6.83
2019-01-26T16:25:17.995Z,9.67
2019-01-26T16:27:45.441Z,10.23
2019-01-26T16:30:15.614Z,8.97
2019-01-26T16:32:43.063Z,7.75
2019-01-26T16:35:10.574Z,9.35
2019-01-26T16:37:38.719Z,8.48
2019-01-26T16:40:07.719Z,10.17
2019-01-26T16:42:35.167Z,9.87
2019-01-26T16:45:02.714Z,9.33
2019-01-26T16:47:30.209Z,8.67
2019-01-26T16:49:57.644Z,10.27
2019-01-26T16:52:25.106Z,10.30
2019-01-26T16:54:52.555Z,9.75
2019-01-26T16:57:20.130Z,8.90
2019-01-26T16:59:47.613Z,9.67
2019-01-26T17:02:15.202Z,10.20
2019-01-26T17:04:42.651Z,7.93
2019-01-26T17:07:10.099Z,8.70
2019-01-26T17:09:37.550Z,9.17
2019-01-26T17:12:04.985Z,10.10
2019-01-26T17:14:32.462Z,10.13
2019-01-26T17:16:59.906Z,8.70
2019-01-26T17:19:27.420Z,8.05
2019-01-26T17:21:54.851Z,8.87
2019-01-26T17:24:22.288Z,8.23
2019-01-26T17:26:52.915Z,9.73
2019-01-26T17:29:17.483Z,8.53
2019-01-26T17:31:45.079Z,9.75
2019-01-26T17:34:12.553Z,8.40
2019-01-26T17:36:40.030Z,7.70
2019-01-26T17:39:07.571Z,7.67
2019-01-26T17:41:35.046Z,7.57
2019-01-26T17:44:02.518Z,7.13
2019-01-26T17:46:30.006Z,6.53
2019-01-26T17:48:57.448Z,6.37
2019-01-26T17:51:24.887Z,5.90
2019-01-26T17:53:52.375Z,4.93
2019-01-26T17:56:19.877Z,5.77
2019-01-26T17:58:47.307Z,6.03
2019-01-26T18:01:14.749Z,6.07
2019-01-26T18:03:42.211Z,5.90
2019-01-26T18:06:10.228Z,6.03
2019-01-26T18:08:39.478Z,5.77
2019-01-26T18:11:07.009Z,5.80
2019-01-26T18:13:34.483Z,6.30
2019-01-26T18:16:01.926Z,6.17
2019-01-26T18:18:29.369Z,6.00
2019-01-26T18:20:56.844Z,7.07
2019-01-26T18:23:24.659Z,6.50
2019-01-26T18:25:51.830Z,5.20
2019-01-26T18:28:19.279Z,6.20
2019-01-26T18:30:46.719Z,5.70
2019-01-26T18:33:14.222Z,6.10
2019-01-26T18:35:41.678Z,7.35
2019-01-26T18:38:09.142Z,4.77
2019-01-26T18:40:36.605Z,5.00
2019-01-26T18:43:04.091Z,4.73
2019-01-26T18:45:31.547Z,5.03
2019-01-26T18:47:59.000Z,5.07
2019-01-26T18:50:43.097Z,5.23
2019-01-26T18:53:11.131Z,4.95
2019-01-26T18:55:38.672Z,5.10
2019-01-26T18:58:08.513Z,5.33
2019-01-26T19:00:36.055Z,3.45
2019-01-26T19:03:22.148Z,5.63
2019-01-26T19:05:49.769Z,4.80
2019-01-26T19:08:17.285Z,5.18
2019-01-26T19:10:44.877Z,4.93
2019-01-26T19:13:12.415Z,5.43
2019-01-26T19:15:39.992Z,6.47
2019-01-26T19:18:07.553Z,4.90
2019-01-26T19:20:35.034Z,5.60
2019-01-26T19:23:02.672Z,5.43
2019-01-26T19:25:30.144Z,6.13
2019-01-26T19:27:57.594Z,5.70
2019-01-26T19:30:25.058Z,5.80
2019-01-26T19:32:52.508Z,6.50
2019-01-26T19:35:19.986Z,5.53
2019-01-26T19:37:47.463Z,5.47
2019-01-26T19:40:23.808Z,5.97
2019-01-26T19:42:52.078Z,5.57
2019-01-26T19:45:20.961Z,5.00
2019-01-26T19:47:48.488Z,5.90
2019-01-26T19:50:19.610Z,5.20
2019-01-26T19:52:47.067Z,4.90
2019-01-26T19:55:14.481Z,4.27
2019-01-26T19:57:42.688Z,4.65
2019-01-26T20:00:10.142Z,3.20
2019-01-26T20:02:37.606Z,5.17
2019-01-26T20:05:05.068Z,4.43
2019-01-26T20:07:32.498Z,5.20
2019-01-26T20:09:59.943Z,3.83
2019-01-26T20:12:27.393Z,4.50
2019-01-26T20:14:54.856Z,4.62
2019-01-26T20:17:22.345Z,4.40
2019-01-26T20:19:49.903Z,3.73
2019-01-26T20:22:17.470Z,4.30
2019-01-26T20:24:44.936Z,4.60
2019-01-26T20:27:13.429Z,3.97
2019-01-26T20:29:41.464Z,3.70
2019-01-26T20:32:09.042Z,4.30
2019-01-26T20:34:36.706Z,3.63
2019-01-26T20:37:04.308Z,3.90
2019-01-26T20:39:31.760Z,4.13
2019-01-26T20:41:59.358Z,3.42
2019-01-26T20:44:26.750Z,3.20
2019-01-26T20:46:54.227Z,3.60
2019-01-26T20:49:21.696Z,3.60
2019-01-26T20:51:49.166Z,3.67
2019-01-26T20:54:16.628Z,3.17
2019-01-26T20:56:44.086Z,3.20
2019-01-26T20:59:11.542Z,3.60
2019-01-26T21:01:39.101Z,3.10
2019-01-26T21:04:06.564Z,3.10
2019-01-26T21:06:34.048Z,2.67
2019-01-26T21:09:01.513Z,3.00
2019-01-26T21:11:31.279Z,3.03
2019-01-26T21:13:58.798Z,3.07
2019-01-26T21:16:26.265Z,2.90
2019-01-26T21:18:53.742Z,3.30
2019-01-26T21:21:21.207Z,2.75
2019-01-26T21:23:48.671Z,2.80
2019-01-26T21:26:16.215Z,2.97
2019-01-26T21:28:44.413Z,2.87
2019-01-26T21:31:12.073Z,2.90
2019-01-26T21:33:39.509Z,2.93
2019-01-26T21:36:06.968Z,2.60
2019-01-26T21:38:35.409Z,2.43
2019-01-26T21:41:03.070Z,3.00
2019-01-26T21:43:30.512Z,2.93
2019-01-26T21:45:58.231Z,2.70
2019-01-26T21:48:25.723Z,1.80
2019-01-26T21:50:53.287Z,2.28
2019-01-26T21:53:20.748Z,2.33
2019-01-26T21:55:48.310Z,2.27
2019-01-26T21:58:16.259Z,2.17
2019-01-26T22:00:44.607Z,2.17
2019-01-26T22:03:12.153Z,2.03
2019-01-26T22:05:39.592Z,2.00
2019-01-26T22:08:07.044Z,2.10
2019-01-26T22:10:34.512Z,1.90
2019-01-26T22:13:02.008Z,1.70
2019-01-26T22:15:29.457Z,1.83
2019-01-26T22:17:56.892Z,2.00
2019-01-26T22:20:24.381Z,1.80
2019-01-26T22:22:53.258Z,1.73
2019-01-26T22:25:20.796Z,1.73
2019-01-26T22:27:48.248Z,1.70
2019-01-26T22:30:21.608Z,1.60
2019-01-26T22:32:49.052Z,1.60
2019-01-26T22:35:16.774Z,1.80
2019-01-26T22:37:44.213Z,1.20
2019-01-26T22:40:11.694Z,1.73
2019-01-26T22:42:39.147Z,1.93
2019-01-26T22:45:06.650Z,1.87
2019-01-26T22:47:34.187Z,1.60
2019-01-26T22:50:01.637Z,1.87
2019-01-26T22:52:29.080Z,1.37
2019-01-26T22:54:56.575Z,1.50
2019-01-26T22:57:24.054Z,1.60
2019-01-26T22:59:52.324Z,1.70
2019-01-26T23:02:19.765Z,1.60
2019-01-26T23:04:48.069Z,1.43
2019-01-26T23:07:19.153Z,1.20
2019-01-26T23:09:48.098Z,1.60
2019-01-26T23:12:18.168Z,1.50
2019-01-26T23:15:01.135Z,1.58
2019-01-26T23:17:31.178Z,1.60
2019-01-26T23:19:59.406Z,1.50
2019-01-26T23:22:33.349Z,1.50
2019-01-26T23:25:16.975Z,1.40
2019-01-26T23:27:46.688Z,1.40
2019-01-26T23:30:25.943Z,1.47
2019-01-26T23:32:53.792Z,1.42
2019-01-26T23:35:21.209Z,1.40
2019-01-26T23:37:48.680Z,1.30
2019-01-26T23:40:17.207Z,1.25
2019-01-26T23:42:44.666Z,1.40
2019-01-26T23:45:12.172Z,1.40
2019-01-26T23:47:39.597Z,1.50
2019-01-26T23:50:07.032Z,1.17
2019-01-26T23:52:34.461Z,1.43
2019-01-26T23:55:02.064Z,1.35
2019-01-26T23:57:29.554Z,1.50
2019-01-26T23:59:56.971Z,1.30
